Home > Products > Valid Products > MTR

000
SAUS44 KMRX 101055 COR
MTRGDP
METAR KGDP 101051Z AUTO 23006KT 10SM CLR 08/M09 A3037 RMK AO2 SLP247
T00781094





000
SAUS44 KMRX 081155 COR
MTRGDP
METAR KGDP 081151Z AUTO 05039KT 10SM CLR M02/M08 A3036 RMK AO2 PK
WND 05047/1119 SLP262 T10171083 10089 21017 53001





000
SAUS44 KMRX 081155 COR
MTRGDP
METAR KGDP 081151Z AUTO 05039KT 10SM CLR M02/M08 A3036 RMK AO2 PK
WND 05047/1119 SLP262 T10171083 10089 21017 53001





000
SAUS44 KMRX 080555 COR
MTRGDP
METAR KGDP 080551Z AUTO 05022KT 10SM CLR 09/M09 A3034 RMK AO2 PK WND
04026/0541 SLP243 T00891094 10144 20089 53011





000
SAUS44 KMRX 080555 COR
MTRGDP
METAR KGDP 080551Z AUTO 05022KT 10SM CLR 09/M09 A3034 RMK AO2 PK WND
04026/0541 SLP243 T00891094 10144 20089 53011





    US Dept of Commerce
    National Oceanic and Atmospheric Administration
    National Weather Service
    1325 East West Highway
    Silver Spring, MD 20910
    Page Author: NWS Internet Services Team
Disclaimer
Information Quality
Credits
Glossary
Privacy Policy
Freedom of Information Act (FOIA)
About Us
Career Opportunities